Accueil
METAR-TAF:

METAR-TAF

Aéroports :

Aéroport international de Mogadiscio

Mogadiscio, Somalie

latitude: 02-02N, longitude: 045-21E, altitude: 9 m

Observation

Le bulletin a été fait il y a 8 heures et 51 minutes, à 14:00 UTC
Vent 16 kt de est/nord-est
Température 29°C
Humidité 70%
Pression 1009 hPa
Visibilité 10 km ou plus
Nuages fragmentés à une hauteur de 2300 ft

METAR: HCMM 251400Z 07016KT 9999 BKN023 29/23 Q1009

Heure: 01:51 (22:51 UTC)


TAF: absent

Observations et prévisions météorologiques de plus de 4000 aéroports (messages METAR et TAF).

Les stations disponibles sont représentées par des disques jaunes et rouges sur la carte.

Passer la souris dessus pour voir le nom de la station.

Cliquer dessus pour voir les observations et prévisions météorologiques.

Pour changer de carte: cliquez sur les boutons verts avec une croix noire pour zoomer, sur le bouton vert avec un tiret pour effectuer un zoom arrière, ou sur les flèches vertes pour les cartes adjacentes.


METAR-TAF: